Time;durP1;ratioP1;P1;durP2;ratioP2;P2;SDS_P1;SDS_P2;PMS_P1;PMS_P2;Temp;Humidity;BMP_temperature;BMP_pressure;BME280_temperature;BME280_humidity;BME280_pressure;Samples;Min_cycle;Max_cycle;Signal;HPM_P1;HPM_P2
2023/12/29 00:00:56;;;;;;;6.03;3.60;;;;;;;;;;5848615;28;20142;-79
2023/12/29 00:03:47;;;;;;;3.25;2.67;;;;;;;;;;5864086;28;20046;-79
2023/12/29 00:06:39;;;;;;;7.07;4.85;;;;;;;;;;5865567;28;20053;-79
2023/12/29 00:09:46;;;;;;;3.95;3.03;;;;;;;;;;5865636;28;20503;-79
2023/12/29 00:12:37;;;;;;;4.15;3.60;;;;;;;;;;5865445;28;20079;-79
2023/12/29 00:15:28;;;;;;;3.88;3.10;;;;;;;;;;5863911;28;20049;-79
2023/12/29 00:18:19;;;;;;;3.03;2.70;;;;;;;;;;5865212;28;20045;-79
2023/12/29 00:21:10;;;;;;;9.60;2.97;;;;;;;;;;5864062;28;20135;-80
2023/12/29 00:24:01;;;;;;;5.63;2.38;;;;;;;;;;5863553;28;20448;-79
2023/12/29 00:26:52;;;;;;;3.30;3.00;;;;;;;;;;5864066;28;20057;-80
2023/12/29 00:29:43;;;;;;;3.05;2.65;;;;;;;;;;5863896;28;20539;-79
2023/12/29 00:32:33;;;;;;;3.05;2.78;;;;;;;;;;5863722;28;20796;-79
2023/12/29 00:35:24;;;;;;;4.75;2.83;;;;;;;;;;5864858;28;20049;-80
2023/12/29 00:38:15;;;;;;;6.75;3.20;;;;;;;;;;5863598;28;20073;-79
2023/12/29 00:41:06;;;;;;;3.40;2.85;;;;;;;;;;5863652;28;20471;-79
2023/12/29 00:43:57;;;;;;;3.10;2.17;;;;;;;;;;5863482;28;20045;-79
2023/12/29 00:46:48;;;;;;;3.30;2.95;;;;;;;;;;5863306;28;20064;-79
2023/12/29 00:49:40;;;;;;;6.53;2.65;;;;;;;;;;5863206;28;20049;-80
2023/12/29 00:52:32;;;;;;;3.40;2.55;;;;;;;;;;5863187;28;20149;-79
2023/12/29 00:55:22;;;;;;;4.30;2.72;;;;;;;;;;5862809;28;20045;-79
2023/12/29 00:58:13;;;;;;;2.67;2.47;;;;;;;;;;5863299;28;20049;-79
2023/12/29 01:01:08;;;;;;;5.20;2.90;;;;;;;;;;5860429;28;20112;-79
2023/12/29 01:03:59;;;;;;;4.50;2.40;;;;;;;;;;5849632;28;20064;-79
2023/12/29 01:06:50;;;;;;;4.45;3.30;;;;;;;;;;5841686;28;20098;-79
2023/12/29 01:09:41;;;;;;;4.75;2.33;;;;;;;;;;5818335;28;20045;-79
2023/12/29 01:12:32;;;;;;;3.25;2.28;;;;;;;;;;5818354;28;20045;-79
2023/12/29 01:15:22;;;;;;;4.15;2.70;;;;;;;;;;5817924;28;20113;-79
2023/12/29 01:18:13;;;;;;;6.13;4.78;;;;;;;;;;5833325;28;20053;-79
2023/12/29 01:21:04;;;;;;;7.63;3.78;;;;;;;;;;5818043;28;20137;-80
2023/12/29 01:23:55;;;;;;;6.38;3.70;;;;;;;;;;5841232;28;20076;-80
2023/12/29 01:26:45;;;;;;;10.48;5.20;;;;;;;;;;5816661;28;20049;-80
2023/12/29 01:29:36;;;;;;;4.28;3.88;;;;;;;;;;5816599;28;20570;-80
2023/12/29 01:32:30;;;;;;;6.93;3.90;;;;;;;;;;5816404;28;20513;-79
2023/12/29 01:35:21;;;;;;;4.15;2.30;;;;;;;;;;5816244;28;20417;-79
2023/12/29 01:38:11;;;;;;;4.40;3.17;;;;;;;;;;5816349;28;20061;-79
2023/12/29 01:41:02;;;;;;;5.60;2.72;;;;;;;;;;5816147;28;20054;-79
2023/12/29 01:43:56;;;;;;;6.20;3.53;;;;;;;;;;5816559;28;20520;-79
2023/12/29 01:46:51;;;;;;;6.43;3.90;;;;;;;;;;5817519;28;20049;-79
2023/12/29 01:49:45;;;;;;;7.68;3.33;;;;;;;;;;5800291;28;20052;-79
2023/12/29 01:52:36;;;;;;;4.03;2.90;;;;;;;;;;5816030;28;20042;-79
2023/12/29 01:55:27;;;;;;;2.97;2.67;;;;;;;;;;5815361;28;20061;-80
2023/12/29 01:58:18;;;;;;;3.10;2.80;;;;;;;;;;5817024;28;20073;-79
2023/12/29 02:01:10;;;;;;;2.78;2.55;;;;;;;;;;5817325;28;20073;-79
2023/12/29 02:04:01;;;;;;;3.92;3.08;;;;;;;;;;5815714;28;20412;-79
2023/12/29 02:06:52;;;;;;;5.05;1.92;;;;;;;;;;5816226;28;20100;-79
2023/12/29 02:09:44;;;;;;;4.38;2.08;;;;;;;;;;5815818;28;20042;-80
2023/12/29 02:12:38;;;;;;;3.15;2.08;;;;;;;;;;5815626;28;20051;-79
2023/12/29 02:15:29;;;;;;;3.78;2.58;;;;;;;;;;5815492;28;20046;-79
2023/12/29 02:18:21;;;;;;;8.98;4.28;;;;;;;;;;5816865;28;20057;-79
2023/12/29 02:21:13;;;;;;;3.60;3.08;;;;;;;;;;5799508;28;20055;-79
2023/12/29 02:24:03;;;;;;;4.40;2.67;;;;;;;;;;5816738;28;20057;-79
2023/12/29 02:27:23;;;;;;;5.55;2.60;;;;;;;;;;5831984;28;20061;-79
2023/12/29 02:30:36;;;;;;;3.00;2.70;;;;;;;;;;5837895;28;20121;-80
2023/12/29 02:33:29;;;;;;;1.90;1.80;;;;;;;;;;5833971;28;20042;-79
2023/12/29 02:36:22;;;;;;;7.45;3.28;;;;;;;;;;5831321;28;20537;-79
2023/12/29 02:39:13;;;;;;;7.03;4.75;;;;;;;;;;5831586;28;20057;-79
2023/12/29 02:42:05;;;;;;;3.20;2.22;;;;;;;;;;5831464;28;20507;-79
2023/12/29 02:44:55;;;;;;;2.35;2.15;;;;;;;;;;5823628;28;20052;-79
2023/12/29 02:47:48;;;;;;;2.05;1.90;;;;;;;;;;5816512;28;20047;-79
2023/12/29 02:50:38;;;;;;;3.00;2.70;;;;;;;;;;5815246;28;20061;-79
2023/12/29 02:53:29;;;;;;;12.02;3.65;;;;;;;;;;5815229;28;20449;-79
2023/12/29 02:56:20;;;;;;;6.18;3.45;;;;;;;;;;5815304;28;20057;-79
2023/12/29 02:59:11;;;;;;;6.07;4.05;;;;;;;;;;5815361;28;20069;-79
2023/12/29 03:02:01;;;;;;;3.85;2.60;;;;;;;;;;5815049;28;20424;-79
2023/12/29 03:04:52;;;;;;;3.80;3.10;;;;;;;;;;5815230;28;20042;-79
2023/12/29 03:07:43;;;;;;;6.05;5.43;;;;;;;;;;5816542;28;20049;-79
2023/12/29 03:10:34;;;;;;;10.88;6.25;;;;;;;;;;5820900;28;20046;-79
2023/12/29 03:13:24;;;;;;;14.18;10.43;;;;;;;;;;5803417;28;20062;-79
2023/12/29 03:16:15;;;;;;;9.98;8.38;;;;;;;;;;5835720;28;20503;-79
2023/12/29 03:19:06;;;;;;;11.82;4.70;;;;;;;;;;5819262;28;20053;-79
2023/12/29 03:21:57;;;;;;;5.53;3.47;;;;;;;;;;5819682;28;20050;-79
2023/12/29 03:24:48;;;;;;;2.42;2.22;;;;;;;;;;5819052;28;20097;-79
2023/12/29 03:27:39;;;;;;;4.22;2.60;;;;;;;;;;5819280;28;20065;-79
2023/12/29 03:30:30;;;;;;;2.20;2.00;;;;;;;;;;5835305;28;20092;-79
2023/12/29 03:33:21;;;;;;;1.98;1.83;;;;;;;;;;5818916;28;20054;-79
2023/12/29 03:36:12;;;;;;;2.42;2.22;;;;;;;;;;5820453;28;20077;-79
2023/12/29 03:39:03;;;;;;;2.85;2.63;;;;;;;;;;5820147;28;20423;-79
2023/12/29 03:41:53;;;;;;;4.00;2.90;;;;;;;;;;5819368;28;20368;-79
2023/12/29 03:44:44;;;;;;;4.80;3.85;;;;;;;;;;5818781;28;20393;-79
2023/12/29 03:47:35;;;;;;;2.10;1.90;;;;;;;;;;5820202;28;20517;-79
2023/12/29 03:50:27;;;;;;;2.55;2.35;;;;;;;;;;5802747;28;20042;-79
2023/12/29 03:53:19;;;;;;;2.00;1.83;;;;;;;;;;5818966;28;20050;-79
2023/12/29 03:56:18;;;;;;;4.88;3.08;;;;;;;;;;5818578;28;20050;-79
2023/12/29 03:59:09;;;;;;;4.07;2.67;;;;;;;;;;5818619;28;20052;-79
2023/12/29 04:02:00;;;;;;;6.22;1.98;;;;;;;;;;5818816;28;20124;-79
2023/12/29 04:04:50;;;;;;;4.53;2.40;;;;;;;;;;5818539;28;20049;-79
2023/12/29 04:07:41;;;;;;;4.40;2.20;;;;;;;;;;5818283;28;20058;-79
2023/12/29 04:10:32;;;;;;;2.08;1.60;;;;;;;;;;5802771;28;20049;-79
2023/12/29 04:13:23;;;;;;;1.77;1.45;;;;;;;;;;5819627;28;20042;-79
2023/12/29 04:16:15;;;;;;;2.28;1.52;;;;;;;;;;5818480;28;20726;-79
2023/12/29 04:19:06;;;;;;;4.00;2.65;;;;;;;;;;5817252;28;20054;-79
2023/12/29 04:21:57;;;;;;;2.38;2.08;;;;;;;;;;5818871;28;20042;-79
2023/12/29 04:24:48;;;;;;;2.85;2.35;;;;;;;;;;5819291;28;20124;-79
2023/12/29 04:27:40;;;;;;;1.95;1.83;;;;;;;;;;5802111;28;20050;-79
2023/12/29 04:30:31;;;;;;;2.97;2.47;;;;;;;;;;5817901;28;20405;-79
2023/12/29 04:33:22;;;;;;;3.80;2.38;;;;;;;;;;5817576;28;20121;-79
2023/12/29 04:36:13;;;;;;;4.45;1.83;;;;;;;;;;5819083;28;20054;-79
2023/12/29 04:39:03;;;;;;;3.90;2.30;;;;;;;;;;5801718;28;20150;-79
2023/12/29 04:41:54;;;;;;;4.78;3.20;;;;;;;;;;5818199;28;20050;-79
2023/12/29 04:44:45;;;;;;;2.97;2.63;;;;;;;;;;5817727;28;20504;-79
2023/12/29 04:47:37;;;;;;;4.15;2.58;;;;;;;;;;5818749;28;20082;-79
2023/12/29 04:50:28;;;;;;;3.05;1.60;;;;;;;;;;5801506;28;20060;-79
2023/12/29 04:53:18;;;;;;;1.73;1.35;;;;;;;;;;5817343;28;20149;-79
2023/12/29 04:56:09;;;;;;;1.70;1.60;;;;;;;;;;5817471;28;20054;-79
2023/12/29 04:59:00;;;;;;;1.77;1.50;;;;;;;;;;5817760;28;20054;-79
2023/12/29 05:01:51;;;;;;;2.70;2.13;;;;;;;;;;5817383;28;20043;-79
2023/12/29 05:04:41;;;;;;;5.00;2.45;;;;;;;;;;5818412;28;20051;-79
2023/12/29 05:07:32;;;;;;;3.65;2.25;;;;;;;;;;5818544;28;20357;-79
2023/12/29 05:10:23;;;;;;;3.50;2.38;;;;;;;;;;5817006;28;20053;-79
2023/12/29 05:13:14;;;;;;;4.38;2.72;;;;;;;;;;5818442;28;20054;-79
2023/12/29 05:16:05;;;;;;;6.97;2.67;;;;;;;;;;5833587;28;20054;-79
2023/12/29 05:18:56;;;;;;;2.50;2.17;;;;;;;;;;5817181;28;20043;-79
2023/12/29 05:21:50;;;;;;;4.78;3.05;;;;;;;;;;5817045;28;20441;-79
2023/12/29 05:24:42;;;;;;;3.58;2.35;;;;;;;;;;5832774;28;20109;-79
2023/12/29 05:27:33;;;;;;;2.40;1.55;;;;;;;;;;5800735;28;20119;-79
2023/12/29 05:30:27;;;;;;;2.50;1.75;;;;;;;;;;5818036;28;20042;-79
2023/12/29 05:33:18;;;;;;;4.13;2.28;;;;;;;;;;5816262;28;20082;-79
2023/12/29 05:36:10;;;;;;;3.95;3.00;;;;;;;;;;5817801;28;20061;-79
2023/12/29 05:39:01;;;;;;;2.30;1.80;;;;;;;;;;5800446;28;20166;-79
2023/12/29 05:41:52;;;;;;;4.10;2.75;;;;;;;;;;5818119;28;20050;-79
2023/12/29 05:44:42;;;;;;;4.70;2.50;;;;;;;;;;5832131;28;20054;-79
2023/12/29 05:47:33;;;;;;;6.25;1.95;;;;;;;;;;5817496;28;20504;-79
2023/12/29 05:50:24;;;;;;;3.55;2.50;;;;;;;;;;5817649;28;20046;-79
2023/12/29 05:53:15;;;;;;;1.98;1.60;;;;;;;;;;5816215;28;20061;-79
2023/12/29 05:56:06;;;;;;;3.50;1.95;;;;;;;;;;5815999;28;20054;-79
2023/12/29 05:58:57;;;;;;;1.30;1.20;;;;;;;;;;5816430;28;20132;-80
2023/12/29 06:01:48;;;;;;;1.25;1.10;;;;;;;;;;5816119;28;20042;-80
2023/12/29 06:04:39;;;;;;;3.65;1.40;;;;;;;;;;5815710;28;20137;-80
2023/12/29 06:07:30;;;;;;;0.90;0.90;;;;;;;;;;5832291;28;20053;-79
2023/12/29 06:10:20;;;;;;;1.25;1.15;;;;;;;;;;5815901;28;20145;-80
2023/12/29 06:13:11;;;;;;;1.23;1.02;;;;;;;;;;5815909;28;20050;-80
2023/12/29 06:16:03;;;;;;;1.75;1.42;;;;;;;;;;5815649;28;20057;-80
2023/12/29 06:18:54;;;;;;;1.92;1.60;;;;;;;;;;5815992;28;20526;-80
2023/12/29 06:21:45;;;;;;;1.83;1.27;;;;;;;;;;5815600;28;20042;-79
2023/12/29 06:24:36;;;;;;;3.17;2.00;;;;;;;;;;5816546;28;20528;-80
2023/12/29 06:27:27;;;;;;;1.70;1.40;;;;;;;;;;5815758;28;20049;-79
2023/12/29 06:30:18;;;;;;;1.52;1.27;;;;;;;;;;5815669;28;20500;-79
2023/12/29 06:33:09;;;;;;;5.32;2.55;;;;;;;;;;5816625;28;20397;-80
2023/12/29 06:36:00;;;;;;;3.35;1.60;;;;;;;;;;5815965;28;20165;-80
2023/12/29 06:38:52;;;;;;;2.03;1.65;;;;;;;;;;5815306;28;20045;-80
2023/12/29 06:41:43;;;;;;;2.40;2.20;;;;;;;;;;5831077;28;20078;-80
2023/12/29 06:44:34;;;;;;;2.50;2.30;;;;;;;;;;5814962;28;20050;-78
2023/12/29 06:47:24;;;;;;;2.70;1.77;;;;;;;;;;5799041;28;20512;-78
2023/12/29 06:50:15;;;;;;;2.30;1.80;;;;;;;;;;5816488;28;20046;-78
2023/12/29 06:53:06;;;;;;;4.32;2.30;;;;;;;;;;5814994;28;20054;-78
2023/12/29 06:55:57;;;;;;;3.72;2.53;;;;;;;;;;5815673;28;20042;-78
2023/12/29 06:58:48;;;;;;;4.22;2.25;;;;;;;;;;5814883;28;20043;-78
2023/12/29 07:01:42;;;;;;;2.92;1.55;;;;;;;;;;5815111;28;20046;-78
2023/12/29 07:04:33;;;;;;;1.35;0.95;;;;;;;;;;5816358;28;20042;-78
2023/12/29 07:07:24;;;;;;;1.92;1.73;;;;;;;;;;5815197;28;20050;-78
2023/12/29 07:10:15;;;;;;;1.70;1.48;;;;;;;;;;5815015;28;20057;-78
2023/12/29 07:13:06;;;;;;;1.50;1.40;;;;;;;;;;5814981;28;20061;-78
2023/12/29 07:15:57;;;;;;;3.30;0.98;;;;;;;;;;5815346;28;20082;-78
2023/12/29 07:18:48;;;;;;;1.20;1.10;;;;;;;;;;5816267;28;20038;-78
2023/12/29 07:21:39;;;;;;;2.22;1.25;;;;;;;;;;5814969;28;20047;-79
2023/12/29 07:24:31;;;;;;;1.17;1.08;;;;;;;;;;5814485;28;20448;-78
2023/12/29 07:27:22;;;;;;;3.30;2.03;;;;;;;;;;5814645;28;20061;-78
2023/12/29 07:30:14;;;;;;;1.02;1.00;;;;;;;;;;5814700;28;20046;-79
2023/12/29 07:33:05;;;;;;;2.05;1.48;;;;;;;;;;5814630;28;20121;-79
2023/12/29 07:35:56;;;;;;;2.78;2.05;;;;;;;;;;5815243;28;20042;-78
2023/12/29 07:38:47;;;;;;;4.68;1.60;;;;;;;;;;5798617;28;20500;-79
2023/12/29 07:41:44;;;;;;;1.20;1.10;;;;;;;;;;5816093;28;20053;-79
2023/12/29 07:44:35;;;;;;;2.50;1.38;;;;;;;;;;5798945;28;20053;-78
2023/12/29 07:47:26;;;;;;;1.38;1.25;;;;;;;;;;5814783;28;20116;-78
2023/12/29 07:50:17;;;;;;;5.30;1.42;;;;;;;;;;5814593;28;20092;-78
2023/12/29 07:53:07;;;;;;;0.85;0.85;;;;;;;;;;5830506;28;20061;-79
2023/12/29 07:55:58;;;;;;;0.85;0.85;;;;;;;;;;5819881;28;20475;-78
2023/12/29 07:58:49;;;;;;;0.93;0.88;;;;;;;;;;5802551;28;20511;-78
2023/12/29 08:01:40;;;;;;;1.67;1.55;;;;;;;;;;5818196;28;20050;-79
2023/12/29 08:04:31;;;;;;;1.35;1.25;;;;;;;;;;5818514;28;20042;-79
2023/12/29 08:07:21;;;;;;;1.13;0.98;;;;;;;;;;5819511;28;20145;-78
2023/12/29 08:10:12;;;;;;;9.95;5.95;;;;;;;;;;5818474;28;20116;-78
2023/12/29 08:13:03;;;;;;;6.45;4.78;;;;;;;;;;5834525;28;20050;-79
2023/12/29 08:15:54;;;;;;;6.97;3.30;;;;;;;;;;5802863;28;20077;-79
2023/12/29 08:18:47;;;;;;;1.80;1.38;;;;;;;;;;5818213;28;20039;-78
2023/12/29 08:21:38;;;;;;;4.15;3.33;;;;;;;;;;5818310;28;20125;-78
2023/12/29 08:24:29;;;;;;;4.72;1.83;;;;;;;;;;5818034;28;20057;-79
2023/12/29 08:27:25;;;;;;;7.78;5.10;;;;;;;;;;5817971;28;20054;-78
2023/12/29 08:30:16;;;;;;;2.60;2.22;;;;;;;;;;5817877;28;20050;-81
2023/12/29 08:33:07;;;;;;;4.95;1.85;;;;;;;;;;5818986;28;20416;-79
2023/12/29 08:36:00;;;;;;;11.40;1.90;;;;;;;;;;5819599;28;20042;-79
2023/12/29 08:38:52;;;;;;;3.80;2.83;;;;;;;;;;5817821;28;20042;-78
2023/12/29 08:41:43;;;;;;;2.92;2.63;;;;;;;;;;5819102;28;20038;-78
2023/12/29 08:44:34;;;;;;;2.20;1.77;;;;;;;;;;5817579;28;20504;-78
2023/12/29 08:47:25;;;;;;;2.08;1.90;;;;;;;;;;5818883;28;20054;-79
2023/12/29 08:50:16;;;;;;;4.47;2.42;;;;;;;;;;5818868;28;20046;-79
2023/12/29 08:53:07;;;;;;;1.55;1.15;;;;;;;;;;5817741;28;20058;-79
2023/12/29 08:55:58;;;;;;;1.98;1.75;;;;;;;;;;5833842;28;20042;-79
2023/12/29 08:58:49;;;;;;;5.40;3.97;;;;;;;;;;5817520;28;20049;-79
2023/12/29 09:01:40;;;;;;;1.33;1.23;;;;;;;;;;5818799;28;20050;-80
2023/12/29 09:04:30;;;;;;;0.98;0.90;;;;;;;;;;5817254;28;20184;-79
2023/12/29 09:07:21;;;;;;;3.42;1.92;;;;;;;;;;5818521;28;20493;-78
2023/12/29 09:10:12;;;;;;;1.75;1.45;;;;;;;;;;5817220;28;20424;-79
2023/12/29 09:13:04;;;;;;;3.92;1.67;;;;;;;;;;5833380;28;20546;-79
2023/12/29 09:15:55;;;;;;;0.60;0.60;;;;;;;;;;5818811;28;20054;-80
2023/12/29 09:18:46;;;;;;;1.17;1.08;;;;;;;;;;5816930;28;20086;-80
2023/12/29 09:21:36;;;;;;;2.60;1.65;;;;;;;;;;5816843;28;20049;-79
2023/12/29 09:24:27;;;;;;;0.77;0.73;;;;;;;;;;5832971;28;20048;-79
2023/12/29 09:27:18;;;;;;;3.20;2.15;;;;;;;;;;5833024;28;20053;-79
2023/12/29 09:30:09;;;;;;;1.33;1.23;;;;;;;;;;5816745;28;20078;-79
2023/12/29 09:33:00;;;;;;;2.42;1.58;;;;;;;;;;5816953;28;20050;-80
2023/12/29 09:35:51;;;;;;;4.75;4.28;;;;;;;;;;5818063;28;20050;-79
2023/12/29 09:38:45;;;;;;;2.80;1.95;;;;;;;;;;5816443;28;20046;-79
2023/12/29 09:41:42;;;;;;;6.93;4.90;;;;;;;;;;5833209;28;20048;-80
2023/12/29 09:44:35;;;;;;;7.07;4.65;;;;;;;;;;5832768;28;20069;-80
2023/12/29 09:47:30;;;;;;;8.65;6.22;;;;;;;;;;5816503;28;20643;-79
2023/12/29 09:50:21;;;;;;;2.63;1.73;;;;;;;;;;5816286;28;20093;-80
2023/12/29 09:53:13;;;;;;;2.25;1.80;;;;;;;;;;5816158;28;20122;-80
2023/12/29 09:56:09;;;;;;;4.63;3.35;;;;;;;;;;5816214;28;20054;-81
2023/12/29 09:59:01;;;;;;;2.78;2.50;;;;;;;;;;5816731;28;20042;-79
2023/12/29 10:01:53;;;;;;;2.45;2.10;;;;;;;;;;5816275;28;20042;-80
2023/12/29 10:04:44;;;;;;;3.50;2.58;;;;;;;;;;5800439;28;20515;-80
2023/12/29 10:07:38;;;;;;;2.33;1.98;;;;;;;;;;5817809;28;20508;-80
2023/12/29 10:10:30;;;;;;;5.65;3.15;;;;;;;;;;5816238;28;20070;-79
2023/12/29 10:13:22;;;;;;;9.02;4.07;;;;;;;;;;5816052;28;20061;-79
2023/12/29 10:16:13;;;;;;;14.52;5.50;;;;;;;;;;5817133;28;20054;-80
2023/12/29 10:19:46;;;;;;;5.93;3.33;;;;;;;;;;5831458;28;20065;-79
2023/12/29 10:22:59;;;;;;;5.03;2.25;;;;;;;;;;5816087;28;20511;-78
2023/12/29 10:25:51;;;;;;;4.47;3.50;;;;;;;;;;5831979;28;20038;-79
2023/12/29 10:28:43;;;;;;;1.38;1.27;;;;;;;;;;5817064;28;20396;-79
2023/12/29 10:31:34;;;;;;;5.60;2.53;;;;;;;;;;5816985;28;20416;-79
2023/12/29 10:34:29;;;;;;;4.38;3.08;;;;;;;;;;5816579;28;20045;-80
2023/12/29 10:37:22;;;;;;;8.50;3.65;;;;;;;;;;5815711;28;20054;-80
2023/12/29 10:40:19;;;;;;;1.23;0.98;;;;;;;;;;5816831;28;20396;-83
2023/12/29 10:43:10;;;;;;;3.53;2.00;;;;;;;;;;5815429;28;20054;-80
2023/12/29 10:46:11;;;;;;;2.83;1.67;;;;;;;;;;5815267;28;20046;-78
2023/12/29 10:49:12;;;;;;;2.85;1.98;;;;;;;;;;5799552;28;20069;-79
2023/12/29 10:52:16;;;;;;;9.73;4.25;;;;;;;;;;5816619;28;20569;-79
2023/12/29 10:55:10;;;;;;;3.30;2.58;;;;;;;;;;5815375;28;20049;-79
2023/12/29 10:58:01;;;;;;;4.10;2.88;;;;;;;;;;5815356;28;20054;-79
2023/12/29 11:00:54;;;;;;;8.30;2.78;;;;;;;;;;5815802;28;20042;-80
2023/12/29 11:04:06;;;;;;;14.85;3.58;;;;;;;;;;5815451;28;20057;-80
2023/12/29 11:06:57;;;;;;;12.05;5.38;;;;;;;;;;5838443;28;20048;-79
2023/12/29 11:09:48;;;;;;;10.82;4.95;;;;;;;;;;5837973;28;20045;-80
2023/12/29 11:12:39;;;;;;;3.88;2.67;;;;;;;;;;5838444;28;20046;-79
2023/12/29 11:15:30;;;;;;;8.70;5.30;;;;;;;;;;5854469;28;20503;-79
2023/12/29 11:18:21;;;;;;;21.38;6.10;;;;;;;;;;5838046;28;20479;-80
2023/12/29 11:21:12;;;;;;;6.97;2.28;;;;;;;;;;5854392;28;20053;-79
2023/12/29 11:24:03;;;;;;;7.40;2.22;;;;;;;;;;5839084;28;20057;-79
2023/12/29 11:26:54;;;;;;;4.38;2.50;;;;;;;;;;5837990;28;20046;-79
2023/12/29 11:29:46;;;;;;;4.95;3.30;;;;;;;;;;5857540;28;20565;-79
2023/12/29 11:32:57;;;;;;;8.85;4.95;;;;;;;;;;5842212;28;20049;-79
2023/12/29 11:35:56;;;;;;;1.95;1.42;;;;;;;;;;5858104;28;20451;-80
2023/12/29 11:39:02;;;;;;;2.40;1.67;;;;;;;;;;5857960;28;20049;-80
2023/12/29 11:42:04;;;;;;;5.60;2.33;;;;;;;;;;5836072;28;20074;-80
2023/12/29 11:44:55;;;;;;;2.40;1.83;;;;;;;;;;5843605;28;20046;-79
2023/12/29 11:47:52;;;;;;;3.58;2.63;;;;;;;;;;5843345;28;20042;-80
2023/12/29 11:50:43;;;;;;;5.05;3.33;;;;;;;;;;5836208;28;20104;-79
2023/12/29 11:53:36;;;;;;;1.83;1.63;;;;;;;;;;5835030;28;20042;-82
2023/12/29 11:56:38;;;;;;;3.55;2.38;;;;;;;;;;5820124;28;20431;-81
2023/12/29 11:59:29;;;;;;;2.90;2.28;;;;;;;;;;5834749;28;20351;-79
2023/12/29 12:02:28;;;;;;;4.55;1.95;;;;;;;;;;5818717;28;20733;-79
2023/12/29 12:05:50;;;;;;;1.63;1.23;;;;;;;;;;5819990;28;20066;-80
2023/12/29 12:08:41;;;;;;;3.95;2.65;;;;;;;;;;5834856;28;20124;-80
2023/12/29 12:11:32;;;;;;;3.20;2.00;;;;;;;;;;5834577;28;20042;-80
2023/12/29 12:14:54;;;;;;;2.15;1.90;;;;;;;;;;5819963;28;20773;-79
2023/12/29 12:17:46;;;;;;;6.82;5.30;;;;;;;;;;5834679;28;20050;-81
2023/12/29 12:20:38;;;;;;;3.97;2.55;;;;;;;;;;5834471;28;20117;-79
2023/12/29 12:23:35;;;;;;;7.45;2.85;;;;;;;;;;5834513;28;20050;-80
2023/12/29 12:26:26;;;;;;;3.00;2.13;;;;;;;;;;5818148;28;20047;-79
2023/12/29 12:29:19;;;;;;;8.68;1.65;;;;;;;;;;5834334;28;20048;-79
2023/12/29 12:32:10;;;;;;;2.65;1.48;;;;;;;;;;5834189;28;20073;-79
2023/12/29 12:35:01;;;;;;;2.38;1.67;;;;;;;;;;5834221;28;20072;-78
2023/12/29 12:38:22;;;;;;;3.28;1.67;;;;;;;;;;5834774;28;20042;-80
2023/12/29 12:41:13;;;;;;;3.17;1.77;;;;;;;;;;5833978;28;20056;-79
2023/12/29 12:44:12;;;;;;;2.78;2.20;;;;;;;;;;5842058;28;20042;-80
2023/12/29 12:47:15;;;;;;;5.15;2.50;;;;;;;;;;5841727;28;20050;-80
2023/12/29 12:50:09;;;;;;;2.67;1.40;;;;;;;;;;5840619;28;20057;-80
2023/12/29 12:53:05;;;;;;;3.80;2.75;;;;;;;;;;5841898;28;20054;-79
2023/12/29 12:55:57;;;;;;;4.18;2.85;;;;;;;;;;5842208;28;20771;-80
2023/12/29 12:58:48;;;;;;;3.80;2.80;;;;;;;;;;5833942;28;20047;-80
2023/12/29 13:01:39;;;;;;;18.88;7.93;;;;;;;;;;5833642;28;20058;-80
2023/12/29 13:04:32;;;;;;;3.05;2.33;;;;;;;;;;5833470;28;20051;-79
2023/12/29 13:07:23;;;;;;;3.25;2.22;;;;;;;;;;5833272;28;20104;-79
2023/12/29 13:10:14;;;;;;;3.13;2.83;;;;;;;;;;5833418;28;20073;-79
2023/12/29 13:13:05;;;;;;;4.30;2.33;;;;;;;;;;5833289;28;20128;-79
2023/12/29 13:15:56;;;;;;;5.97;4.47;;;;;;;;;;5833796;28;20499;-80
2023/12/29 13:18:47;;;;;;;1.50;1.40;;;;;;;;;;5817064;28;20038;-80
2023/12/29 13:21:39;;;;;;;10.32;3.45;;;;;;;;;;5833135;28;20054;-79
2023/12/29 13:24:30;;;;;;;4.43;3.28;;;;;;;;;;5833061;28;20082;-79
2023/12/29 13:27:21;;;;;;;3.20;2.78;;;;;;;;;;5833025;28;20060;-80
2023/12/29 13:30:14;;;;;;;7.35;4.80;;;;;;;;;;5832931;28;20057;-80
2023/12/29 13:33:23;;;;;;;11.10;5.38;;;;;;;;;;5832453;28;20054;-80
2023/12/29 13:36:30;;;;;;;9.45;5.35;;;;;;;;;;5816921;28;20512;-79
2023/12/29 13:39:41;;;;;;;8.90;5.80;;;;;;;;;;5832562;28;20069;-79
2023/12/29 13:42:33;;;;;;;4.10;3.13;;;;;;;;;;5832417;28;20204;-79
2023/12/29 13:45:25;;;;;;;4.15;2.80;;;;;;;;;;5832322;28;20053;-80
2023/12/29 13:48:16;;;;;;;3.47;2.08;;;;;;;;;;5801404;28;20056;-81
2023/12/29 13:51:08;;;;;;;3.30;2.47;;;;;;;;;;5832071;28;20076;-79
2023/12/29 13:54:00;;;;;;;5.95;3.55;;;;;;;;;;5832375;28;20416;-79
2023/12/29 13:56:56;;;;;;;3.72;3.33;;;;;;;;;;5840510;28;20062;-80
2023/12/29 13:59:49;;;;;;;1.70;1.52;;;;;;;;;;5816344;28;20042;-80
2023/12/29 14:02:39;;;;;;;3.38;2.15;;;;;;;;;;5816118;28;20054;-79
2023/12/29 14:05:59;;;;;;;3.63;1.90;;;;;;;;;;5816214;28;20053;-79
2023/12/29 14:08:50;;;;;;;7.22;3.80;;;;;;;;;;5816308;28;20493;-79
2023/12/29 14:11:49;;;;;;;6.57;4.00;;;;;;;;;;5815776;28;20113;-79
2023/12/29 14:14:40;;;;;;;2.60;2.25;;;;;;;;;;5815859;28;20523;-79
2023/12/29 14:17:31;;;;;;;8.18;3.42;;;;;;;;;;5815755;28;20065;-79
2023/12/29 14:20:40;;;;;;;5.40;3.42;;;;;;;;;;5815664;28;20137;-79
2023/12/29 14:23:31;;;;;;;4.25;2.88;;;;;;;;;;5815717;28;20393;-79
2023/12/29 14:26:22;;;;;;;4.97;2.42;;;;;;;;;;5815509;28;20604;-79
2023/12/29 14:29:13;;;;;;;3.53;2.80;;;;;;;;;;5833261;28;20046;-79
2023/12/29 14:32:05;;;;;;;4.13;2.03;;;;;;;;;;5800726;28;20105;-79
2023/12/29 14:34:56;;;;;;;5.25;3.47;;;;;;;;;;5816299;28;20057;-80
2023/12/29 14:37:47;;;;;;;7.47;5.20;;;;;;;;;;5817773;28;20150;-79
2023/12/29 14:40:38;;;;;;;14.57;5.82;;;;;;;;;;5815741;28;20038;-79
2023/12/29 14:43:29;;;;;;;6.85;4.40;;;;;;;;;;5815220;28;20046;-78
2023/12/29 14:46:20;;;;;;;4.18;3.10;;;;;;;;;;5831682;28;20050;-78
2023/12/29 14:49:12;;;;;;;2.70;2.47;;;;;;;;;;5815162;28;20046;-78
2023/12/29 14:52:04;;;;;;;3.05;2.42;;;;;;;;;;5799254;28;20050;-80
2023/12/29 14:54:54;;;;;;;5.88;3.50;;;;;;;;;;5816816;28;20072;-79
2023/12/29 14:57:45;;;;;;;9.57;5.65;;;;;;;;;;5816817;28;20046;-79
2023/12/29 15:00:36;;;;;;;30.58;17.25;;;;;;;;;;5816542;28;20065;-78
2023/12/29 15:03:27;;;;;;;6.85;5.15;;;;;;;;;;5818009;28;20061;-79
2023/12/29 15:06:17;;;;;;;3.25;2.83;;;;;;;;;;5836966;28;20057;-79
2023/12/29 15:09:10;;;;;;;15.95;4.50;;;;;;;;;;5821827;28;20393;-78
2023/12/29 15:12:01;;;;;;;4.35;3.05;;;;;;;;;;5820824;28;20054;-79
2023/12/29 15:14:52;;;;;;;5.18;3.63;;;;;;;;;;5823890;28;20054;-79
2023/12/29 15:17:43;;;;;;;6.07;4.20;;;;;;;;;;5823930;28;20685;-78
2023/12/29 15:20:34;;;;;;;9.60;3.63;;;;;;;;;;5810471;28;20047;-79
2023/12/29 15:23:27;;;;;;;2.45;2.20;;;;;;;;;;5808630;28;20042;-78
2023/12/29 15:26:18;;;;;;;2.28;2.08;;;;;;;;;;5824682;28;20408;-79
2023/12/29 15:29:09;;;;;;;3.95;3.15;;;;;;;;;;5821726;28;20054;-79
2023/12/29 15:32:00;;;;;;;3.28;2.17;;;;;;;;;;5819712;28;20416;-79
2023/12/29 15:34:51;;;;;;;15.38;5.38;;;;;;;;;;5826463;28;20356;-79
2023/12/29 15:37:42;;;;;;;3.75;3.25;;;;;;;;;;5842260;28;20046;-78
2023/12/29 15:40:33;;;;;;;11.00;6.03;;;;;;;;;;5842540;28;20042;-78
2023/12/29 15:43:26;;;;;;;13.05;4.45;;;;;;;;;;5859353;28;20149;-78
2023/12/29 15:46:18;;;;;;;5.00;2.72;;;;;;;;;;5842330;28;20672;-79
2023/12/29 15:49:08;;;;;;;4.60;3.83;;;;;;;;;;5843329;28;20048;-78
2023/12/29 15:51:59;;;;;;;6.25;3.72;;;;;;;;;;5861993;28;20046;-79
2023/12/29 15:54:50;;;;;;;4.70;3.75;;;;;;;;;;5836407;28;20488;-79
2023/12/29 15:57:41;;;;;;;4.03;3.60;;;;;;;;;;5820801;28;20116;-79
2023/12/29 16:00:34;;;;;;;8.60;4.03;;;;;;;;;;5835854;28;20042;-78
2023/12/29 16:03:25;;;;;;;9.07;3.75;;;;;;;;;;5820479;28;20397;-78
2023/12/29 16:06:24;;;;;;;9.15;4.78;;;;;;;;;;5837179;28;20065;-78
2023/12/29 16:09:15;;;;;;;6.68;4.88;;;;;;;;;;5837632;28;20058;-78
2023/12/29 16:12:07;;;;;;;7.20;5.15;;;;;;;;;;5821009;28;20061;-78
2023/12/29 16:14:57;;;;;;;6.93;5.38;;;;;;;;;;5821679;28;20476;-78
2023/12/29 16:17:48;;;;;;;4.82;3.28;;;;;;;;;;5835113;28;20050;-79
2023/12/29 16:20:39;;;;;;;9.65;3.55;;;;;;;;;;5835208;28;20046;-78
2023/12/29 16:23:30;;;;;;;5.22;4.40;;;;;;;;;;5819633;28;20516;-78
2023/12/29 16:26:20;;;;;;;18.23;9.23;;;;;;;;;;5834213;28;20054;-78
2023/12/29 16:29:25;;;;;;;15.73;10.18;;;;;;;;;;5819374;28;20046;-78
2023/12/29 16:32:23;;;;;;;11.10;7.05;;;;;;;;;;5818030;28;20058;-78
2023/12/29 16:35:15;;;;;;;11.63;6.30;;;;;;;;;;5834278;28;20049;-78
2023/12/29 16:38:06;;;;;;;14.23;6.47;;;;;;;;;;5835099;28;20054;-78
2023/12/29 16:40:58;;;;;;;10.45;7.80;;;;;;;;;;5835132;28;20050;-78
2023/12/29 16:43:49;;;;;;;13.05;7.20;;;;;;;;;;5833771;28;20050;-79
2023/12/29 16:46:40;;;;;;;28.95;15.63;;;;;;;;;;5834069;28;20415;-78
2023/12/29 16:49:31;;;;;;;15.32;8.75;;;;;;;;;;5841955;28;20042;-78
2023/12/29 16:52:22;;;;;;;20.33;11.38;;;;;;;;;;5817331;28;20068;-78
2023/12/29 16:55:13;;;;;;;33.72;14.25;;;;;;;;;;5818851;28;20054;-79
2023/12/29 16:58:04;;;;;;;16.33;8.82;;;;;;;;;;5817422;28;20212;-78
2023/12/29 17:00:54;;;;;;;15.50;8.30;;;;;;;;;;5817963;28;20521;-79
2023/12/29 17:03:47;;;;;;;8.60;5.75;;;;;;;;;;5817509;28;20105;-79
2023/12/29 17:06:38;;;;;;;4.97;3.53;;;;;;;;;;5817256;28;20049;-78
2023/12/29 17:09:29;;;;;;;7.45;4.78;;;;;;;;;;5818574;28;20132;-78
2023/12/29 17:12:20;;;;;;;9.88;5.88;;;;;;;;;;5817124;28;20054;-78